createdAt,value
2018-11-06T00:02:09.794Z,0
2018-11-06T00:03:08.421Z,0
2018-11-06T00:04:07.023Z,0
2018-11-06T00:05:05.592Z,0
2018-11-06T00:06:04.467Z,0
2018-11-06T00:07:03.035Z,0
2018-11-06T00:08:01.530Z,0
2018-11-06T00:09:00.165Z,0
2018-11-06T00:09:58.736Z,0
2018-11-06T00:10:57.240Z,0
2018-11-06T00:11:55.880Z,0
2018-11-06T00:12:54.548Z,0
2018-11-06T00:15:34.719Z,0
2018-11-06T00:16:33.271Z,0
2018-11-06T00:17:31.902Z,0
2018-11-06T00:18:30.541Z,0
2018-11-06T00:19:29.615Z,0
2018-11-06T00:20:27.603Z,0
2018-11-06T00:21:26.190Z,0
2018-11-06T00:22:24.664Z,0
2018-11-06T00:23:23.331Z,0
2018-11-06T00:24:21.942Z,0
2018-11-06T00:25:20.590Z,0
2018-11-06T00:26:19.134Z,0
2018-11-06T00:27:17.748Z,0
2018-11-06T00:28:16.421Z,0
2018-11-06T00:30:57.623Z,0
2018-11-06T00:31:55.318Z,0
2018-11-06T00:32:53.764Z,0
2018-11-06T00:33:52.355Z,0
2018-11-06T00:37:13.762Z,0
2018-11-06T00:38:13.196Z,0
2018-11-06T00:39:11.865Z,0
2018-11-06T00:40:10.598Z,0
2018-11-06T00:41:09.092Z,0
2018-11-06T00:42:07.627Z,0
2018-11-06T00:43:06.211Z,0
2018-11-06T00:44:04.740Z,0
2018-11-06T00:45:03.315Z,0
2018-11-06T00:46:01.834Z,0
2018-11-06T00:47:00.392Z,0
2018-11-06T00:49:40.837Z,0
2018-11-06T00:52:21.383Z,0
2018-11-06T00:53:20.018Z,0
2018-11-06T00:54:18.761Z,0
2018-11-06T00:55:17.374Z,0
2018-11-06T00:56:16.058Z,0
2018-11-06T00:57:14.731Z,0
2018-11-06T00:58:13.309Z,0
2018-11-06T00:59:12.061Z,0
2018-11-06T01:00:11.626Z,0
2018-11-06T01:01:09.181Z,0
2018-11-06T01:02:07.896Z,0
2018-11-06T01:03:06.513Z,0
2018-11-06T01:04:05.132Z,0
2018-11-06T01:05:03.724Z,0
2018-11-06T01:06:02.312Z,0
2018-11-06T01:07:00.942Z,0
2018-11-06T01:07:59.477Z,0
2018-11-06T01:08:58.081Z,0
2018-11-06T01:09:56.643Z,0
2018-11-06T01:10:55.251Z,0
2018-11-06T01:11:54.159Z,0
2018-11-06T01:12:53.103Z,0
2018-11-06T01:16:31.777Z,0
2018-11-06T01:17:30.466Z,0
2018-11-06T01:18:29.080Z,0
2018-11-06T01:19:27.626Z,0
2018-11-06T01:20:26.230Z,0
2018-11-06T01:21:24.817Z,0
2018-11-06T01:22:23.367Z,0
2018-11-06T01:23:21.952Z,0
2018-11-06T01:24:20.610Z,0
2018-11-06T01:25:19.178Z,0
2018-11-06T01:26:17.670Z,0
2018-11-06T01:27:16.316Z,0
2018-11-06T01:28:14.878Z,0
2018-11-06T01:29:13.506Z,0
2018-11-06T01:30:12.277Z,0
2018-11-06T01:31:10.695Z,0
2018-11-06T01:32:09.291Z,0
2018-11-06T01:33:08.098Z,0
2018-11-06T01:44:35.384Z,0
2018-11-06T01:45:34.162Z,0
2018-11-06T01:46:32.690Z,0
2018-11-06T01:47:31.248Z,0
2018-11-06T01:48:29.862Z,0
2018-11-06T01:51:10.184Z,0
2018-11-06T01:52:09.075Z,0
2018-11-06T01:53:09.821Z,0
2018-11-06T01:55:50.289Z,0
2018-11-06T01:56:48.877Z,0
2018-11-06T01:57:47.439Z,0
2018-11-06T01:58:46.956Z,0
2018-11-06T01:59:45.492Z,0
2018-11-06T02:02:52.059Z,0
2018-11-06T02:03:50.685Z,0
2018-11-06T02:04:49.257Z,0
2018-11-06T02:05:47.834Z,0
2018-11-06T02:06:46.490Z,0
2018-11-06T02:07:46.830Z,0
2018-11-06T02:08:45.361Z,0
2018-11-06T02:09:43.952Z,0
2018-11-06T02:10:42.621Z,0
2018-11-06T02:11:41.190Z,0
2018-11-06T02:12:39.771Z,0
2018-11-06T02:13:38.466Z,0
2018-11-06T02:14:36.930Z,0
2018-11-06T02:15:35.517Z,0
2018-11-06T02:16:34.076Z,0
2018-11-06T02:17:32.630Z,0
2018-11-06T02:18:31.173Z,0
2018-11-06T02:19:29.742Z,0
2018-11-06T02:20:28.270Z,0
2018-11-06T02:21:26.796Z,0
2018-11-06T02:22:25.420Z,0
2018-11-06T02:23:24.105Z,0
2018-11-06T02:24:22.828Z,0
2018-11-06T02:25:21.444Z,0
2018-11-06T02:26:20.272Z,0
2018-11-06T02:27:18.847Z,0
2018-11-06T02:28:17.451Z,0
2018-11-06T02:29:15.974Z,0
2018-11-06T02:32:54.635Z,0
2018-11-06T02:33:53.187Z,0
2018-11-06T02:36:35.196Z,0
2018-11-06T02:37:33.971Z,0
2018-11-06T02:38:32.757Z,0
2018-11-06T02:39:31.359Z,0
2018-11-06T02:40:31.878Z,0
2018-11-06T02:45:34.889Z,0
2018-11-06T02:46:33.445Z,0
2018-11-06T02:47:32.139Z,0
2018-11-06T02:48:30.676Z,0
2018-11-06T02:49:29.229Z,0
2018-11-06T02:50:27.919Z,0
2018-11-06T02:51:26.467Z,0
2018-11-06T02:52:25.004Z,0
2018-11-06T02:53:23.697Z,0
2018-11-06T02:54:22.396Z,0
2018-11-06T02:55:20.991Z,0
2018-11-06T02:56:19.608Z,0
2018-11-06T02:57:18.239Z,0
2018-11-06T02:58:16.771Z,0
2018-11-06T02:59:15.322Z,0
2018-11-06T03:01:55.483Z,0
2018-11-06T03:02:54.121Z,0
2018-11-06T03:03:52.704Z,0
2018-11-06T03:04:51.209Z,0
2018-11-06T03:05:49.920Z,0
2018-11-06T03:06:48.608Z,0
2018-11-06T03:07:47.173Z,0
2018-11-06T03:08:45.752Z,0
2018-11-06T03:09:44.399Z,0
2018-11-06T03:10:42.899Z,0
2018-11-06T03:11:41.419Z,0
2018-11-06T03:12:39.985Z,0
2018-11-06T03:13:38.538Z,0
2018-11-06T03:14:37.088Z,0
2018-11-06T03:15:35.699Z,0
2018-11-06T03:16:34.337Z,0
2018-11-06T03:17:32.884Z,0
2018-11-06T03:18:31.625Z,0
2018-11-06T03:21:52.921Z,0
2018-11-06T03:22:51.500Z,0
2018-11-06T03:23:50.058Z,0
2018-11-06T03:24:48.756Z,0
2018-11-06T03:25:47.304Z,0
2018-11-06T03:26:46.858Z,0
2018-11-06T03:27:45.358Z,0
2018-11-06T03:28:44.172Z,0
2018-11-06T03:29:42.824Z,0
2018-11-06T03:32:23.221Z,0
2018-11-06T03:33:21.901Z,0
2018-11-06T03:37:43.947Z,0
2018-11-06T03:38:42.483Z,0
2018-11-06T03:39:41.013Z,0
2018-11-06T03:40:39.550Z,0
2018-11-06T03:41:38.094Z,0
2018-11-06T03:42:36.652Z,0
2018-11-06T03:43:35.170Z,0
2018-11-06T03:44:33.844Z,0
2018-11-06T03:45:32.519Z,0
2018-11-06T03:46:31.067Z,0
2018-11-06T03:47:29.758Z,0
2018-11-06T03:48:28.345Z,0
2018-11-06T03:49:26.835Z,0
2018-11-06T03:50:25.362Z,0
2018-11-06T03:51:23.994Z,0
2018-11-06T03:52:22.533Z,0
2018-11-06T03:53:21.242Z,0
2018-11-06T03:54:19.928Z,0
2018-11-06T03:55:18.572Z,0
2018-11-06T03:56:17.146Z,0
2018-11-06T03:57:15.815Z,0
2018-11-06T03:58:14.430Z,0
2018-11-06T03:59:13.069Z,0
2018-11-06T04:00:11.656Z,0
2018-11-06T04:01:10.210Z,0
2018-11-06T04:02:08.742Z,0
2018-11-06T04:03:07.359Z,0
2018-11-06T04:04:06.554Z,0
2018-11-06T04:05:05.090Z,0
2018-11-06T04:06:03.852Z,0
2018-11-06T04:07:02.472Z,0
2018-11-06T04:08:01.024Z,0
2018-11-06T04:08:59.655Z,0
2018-11-06T04:09:58.444Z,0
2018-11-06T04:10:56.979Z,0
2018-11-06T04:11:55.461Z,0
2018-11-06T04:12:54.121Z,0
2018-11-06T04:13:52.795Z,0
2018-11-06T04:14:51.355Z,0
2018-11-06T04:15:50.041Z,0
2018-11-06T04:16:48.577Z,0
2018-11-06T04:17:47.172Z,0
2018-11-06T04:18:45.878Z,0
2018-11-06T04:19:44.641Z,0
2018-11-06T04:20:43.215Z,0
2018-11-06T04:21:41.778Z,0
2018-11-06T04:22:40.553Z,0
2018-11-06T04:23:39.038Z,0
2018-11-06T04:24:37.602Z,0
2018-11-06T04:25:36.185Z,0
2018-11-06T04:26:34.747Z,0
2018-11-06T04:27:33.297Z,0
2018-11-06T04:28:31.988Z,0
2018-11-06T04:29:30.775Z,0
2018-11-06T04:30:29.370Z,0
2018-11-06T04:31:27.982Z,0
2018-11-06T04:32:26.619Z,0
2018-11-06T04:36:05.476Z,0
2018-11-06T04:37:04.120Z,0
2018-11-06T04:38:02.735Z,0
2018-11-06T04:39:01.289Z,0
2018-11-06T04:40:00.691Z,0
2018-11-06T04:40:59.289Z,0
2018-11-06T04:41:57.854Z,0
2018-11-06T04:42:56.521Z,0
2018-11-06T04:43:55.121Z,0
2018-11-06T04:44:53.817Z,0
2018-11-06T04:45:52.352Z,0
2018-11-06T04:46:50.917Z,0
2018-11-06T04:47:49.493Z,0
2018-11-06T04:50:29.960Z,0
2018-11-06T04:51:28.591Z,0
2018-11-06T04:52:27.151Z,0
2018-11-06T04:53:25.922Z,0
2018-11-06T04:54:24.510Z,0
2018-11-06T04:55:23.036Z,0
2018-11-06T04:56:21.775Z,0
2018-11-06T04:57:20.463Z,0
2018-11-06T04:58:29.265Z,0
2018-11-06T04:59:27.304Z,0
2018-11-06T05:00:25.826Z,0
2018-11-06T05:01:24.463Z,0
2018-11-06T05:02:23.056Z,0
2018-11-06T05:03:21.639Z,0
2018-11-06T05:04:20.277Z,0
2018-11-06T05:05:19.317Z,0
2018-11-06T05:06:17.963Z,0
2018-11-06T05:09:09.498Z,0
2018-11-06T05:10:08.212Z,0
2018-11-06T05:11:06.845Z,0
2018-11-06T05:12:05.468Z,0
2018-11-06T05:13:04.063Z,0
2018-11-06T05:14:02.618Z,0
2018-11-06T05:15:01.125Z,0
2018-11-06T05:15:59.654Z,0
2018-11-06T05:16:58.206Z,0
2018-11-06T05:17:56.706Z,0
2018-11-06T05:18:55.238Z,0
2018-11-06T05:19:53.893Z,0
2018-11-06T05:20:52.421Z,0
2018-11-06T05:21:50.910Z,0
2018-11-06T05:22:49.467Z,0
2018-11-06T05:23:48.093Z,0
2018-11-06T05:24:46.813Z,0
2018-11-06T05:25:45.348Z,0
2018-11-06T05:26:44.006Z,0
2018-11-06T05:27:42.634Z,0
2018-11-06T05:28:41.165Z,0
2018-11-06T05:29:39.801Z,0
2018-11-06T05:30:38.371Z,0
2018-11-06T05:31:36.886Z,0
2018-11-06T05:32:35.488Z,0
2018-11-06T05:33:34.004Z,0
2018-11-06T05:34:32.532Z,0
2018-11-06T05:35:31.034Z,0
2018-11-06T05:36:29.508Z,0
2018-11-06T05:37:28.035Z,0
2018-11-06T05:38:26.605Z,0
2018-11-06T05:39:25.299Z,0
2018-11-06T05:40:23.903Z,0
2018-11-06T05:41:22.685Z,0
2018-11-06T05:42:21.455Z,0
2018-11-06T05:43:20.053Z,0
2018-11-06T05:44:18.588Z,0
2018-11-06T05:45:17.179Z,0
2018-11-06T05:46:15.766Z,0
2018-11-06T05:47:14.416Z,0
2018-11-06T05:48:12.958Z,0
2018-11-06T05:49:11.544Z,0
2018-11-06T05:51:52.116Z,0
2018-11-06T05:52:50.656Z,0
2018-11-06T05:53:49.386Z,0
2018-11-06T05:54:47.966Z,0
2018-11-06T05:55:46.670Z,0
2018-11-06T05:59:25.684Z,0
2018-11-06T06:00:24.347Z,0
2018-11-06T06:01:22.910Z,0
2018-11-06T06:02:21.606Z,0
2018-11-06T06:03:20.411Z,0
2018-11-06T06:04:18.940Z,0
2018-11-06T06:05:17.456Z,0
2018-11-06T06:06:16.140Z,0
2018-11-06T06:07:14.762Z,0
2018-11-06T06:08:13.380Z,0
2018-11-06T06:09:11.915Z,0
2018-11-06T06:10:10.475Z,0
2018-11-06T06:11:09.081Z,0
2018-11-06T06:12:07.749Z,0
2018-11-06T06:13:06.519Z,0
2018-11-06T06:14:05.227Z,0
2018-11-06T06:16:45.219Z,0
2018-11-06T06:17:43.686Z,0
2018-11-06T06:18:42.279Z,0
2018-11-06T06:19:40.882Z,0
2018-11-06T06:20:39.938Z,0
2018-11-06T06:21:39.028Z,0
2018-11-06T06:22:37.680Z,0
2018-11-06T06:23:36.263Z,0
2018-11-06T06:24:34.895Z,0
2018-11-06T06:44:58.733Z,5
2018-11-06T06:45:57.280Z,5
2018-11-06T06:46:55.801Z,5
2018-11-06T06:47:54.519Z,5
2018-11-06T06:48:53.036Z,5
2018-11-06T06:49:51.537Z,5
2018-11-06T06:50:50.168Z,10
2018-11-06T06:51:48.843Z,10
2018-11-06T06:52:47.361Z,10
2018-11-06T06:53:46.080Z,10
2018-11-06T06:54:44.663Z,10
2018-11-06T06:55:43.258Z,10
2018-11-06T06:56:42.018Z,10
2018-11-06T06:57:40.641Z,10
2018-11-06T06:58:39.147Z,10
2018-11-06T06:59:37.841Z,15
2018-11-06T07:00:36.904Z,15
2018-11-06T07:01:35.406Z,15
2018-11-06T07:02:34.052Z,15
2018-11-06T07:03:33.177Z,20
2018-11-06T07:04:31.643Z,20
2018-11-06T07:05:30.209Z,20
2018-11-06T07:06:28.803Z,20
2018-11-06T07:07:27.314Z,20
2018-11-06T07:08:25.814Z,25
2018-11-06T07:09:24.319Z,25
2018-11-06T07:10:22.858Z,25
2018-11-06T07:11:21.686Z,25
2018-11-06T07:12:19.954Z,25
2018-11-06T07:13:18.518Z,25
2018-11-06T07:14:17.006Z,25
2018-11-06T07:15:15.763Z,30
2018-11-06T07:16:14.694Z,30
2018-11-06T07:17:13.317Z,30
2018-11-06T07:18:11.925Z,30
2018-11-06T07:19:10.480Z,30
2018-11-06T07:20:08.983Z,30
2018-11-06T07:21:07.496Z,30
2018-11-06T07:22:06.127Z,30
2018-11-06T07:23:04.659Z,30
2018-11-06T07:24:03.199Z,30
2018-11-06T07:25:01.922Z,30
2018-11-06T07:26:00.920Z,30
2018-11-06T07:26:59.265Z,30
2018-11-06T07:27:57.808Z,30
2018-11-06T07:28:56.695Z,30
2018-11-06T07:29:55.117Z,30
2018-11-06T07:30:53.644Z,25
2018-11-06T07:31:52.198Z,25
2018-11-06T07:32:50.740Z,25
2018-11-06T07:33:49.303Z,25
2018-11-06T07:34:47.996Z,25
2018-11-06T07:35:46.515Z,30
2018-11-06T07:36:44.877Z,30
2018-11-06T07:37:43.387Z,30
2018-11-06T07:38:42.543Z,30
2018-11-06T07:39:41.060Z,30
2018-11-06T07:40:39.740Z,30
2018-11-06T07:41:38.257Z,30
2018-11-06T07:42:36.892Z,30
2018-11-06T07:43:35.463Z,30
2018-11-06T07:44:34.258Z,30
2018-11-06T07:45:32.848Z,30
2018-11-06T07:46:31.389Z,30
2018-11-06T07:47:30.183Z,35
2018-11-06T07:50:28.644Z,40
2018-11-06T07:51:27.091Z,40
2018-11-06T07:52:25.633Z,40
2018-11-06T07:53:24.490Z,40
2018-11-06T07:54:22.968Z,40
2018-11-06T07:55:21.550Z,40
2018-11-06T07:56:20.497Z,40
2018-11-06T07:57:18.960Z,40
2018-11-06T07:58:18.416Z,40
2018-11-06T07:59:16.967Z,40
2018-11-06T08:00:15.477Z,40
2018-11-06T08:01:13.972Z,40
2018-11-06T08:02:12.695Z,40
2018-11-06T08:03:11.198Z,40
2018-11-06T08:04:09.826Z,40
2018-11-06T08:05:08.403Z,40
2018-11-06T08:06:06.925Z,45
2018-11-06T08:07:05.418Z,45
2018-11-06T08:08:03.887Z,45
2018-11-06T08:09:02.443Z,45
2018-11-06T08:10:01.026Z,40
2018-11-06T08:10:59.532Z,40
2018-11-06T08:11:58.241Z,40
2018-11-06T08:12:56.781Z,40
2018-11-06T08:13:55.534Z,40
2018-11-06T08:16:36.203Z,40
2018-11-06T08:17:34.694Z,40
2018-11-06T08:18:34.132Z,40
2018-11-06T08:19:32.790Z,40
2018-11-06T08:20:31.342Z,40
2018-11-06T08:21:29.873Z,40
2018-11-06T08:22:28.478Z,45
2018-11-06T08:23:27.010Z,45
2018-11-06T08:24:25.535Z,45
2018-11-06T08:45:55.674Z,50
2018-11-06T08:46:54.197Z,50
2018-11-06T08:47:52.807Z,50
2018-11-06T08:50:33.251Z,50
2018-11-06T08:51:31.753Z,50
2018-11-06T08:52:30.650Z,55
2018-11-06T08:53:29.223Z,50
2018-11-06T08:54:27.828Z,50
2018-11-06T08:55:26.418Z,50
2018-11-06T08:56:24.942Z,50
2018-11-06T08:57:23.427Z,55
2018-11-06T08:58:22.079Z,60
2018-11-06T08:59:20.842Z,65
2018-11-06T09:00:19.445Z,70
2018-11-06T09:01:18.049Z,70
2018-11-06T09:02:16.774Z,70
2018-11-06T09:03:15.259Z,70
2018-11-06T09:04:13.789Z,70
2018-11-06T09:05:12.395Z,70
2018-11-06T09:06:10.890Z,70
2018-11-06T09:07:09.401Z,70
2018-11-06T09:08:08.219Z,70
2018-11-06T09:09:06.544Z,70
2018-11-06T09:10:05.039Z,75
2018-11-06T09:11:03.595Z,75
2018-11-06T09:12:02.362Z,80
2018-11-06T09:13:00.917Z,80
2018-11-06T09:14:05.460Z,85
2018-11-06T09:15:04.090Z,85
2018-11-06T09:16:02.737Z,85
2018-11-06T09:17:01.386Z,90
2018-11-06T09:17:59.827Z,95
2018-11-06T09:18:58.469Z,100
2018-11-06T09:19:56.989Z,100
2018-11-06T09:20:55.530Z,100
2018-11-06T09:21:54.107Z,100
2018-11-06T09:22:52.649Z,105
2018-11-06T09:23:51.242Z,110
2018-11-06T09:24:49.860Z,110
2018-11-06T09:25:48.684Z,115
2018-11-06T09:26:47.199Z,115
2018-11-06T09:27:45.696Z,115
2018-11-06T09:28:44.302Z,120
2018-11-06T09:29:42.799Z,120
2018-11-06T09:30:41.444Z,120
2018-11-06T09:31:40.411Z,125
2018-11-06T09:32:38.908Z,125
2018-11-06T09:33:37.413Z,130
2018-11-06T09:34:36.067Z,130
2018-11-06T09:35:34.668Z,130
2018-11-06T09:36:33.204Z,130
2018-11-06T09:37:31.878Z,130
2018-11-06T09:38:30.530Z,130
2018-11-06T09:39:29.152Z,130
2018-11-06T09:41:26.408Z,130
2018-11-06T09:42:24.876Z,130
2018-11-06T09:43:23.501Z,130
2018-11-06T09:44:22.011Z,130
2018-11-06T09:45:20.568Z,130
2018-11-06T09:46:19.054Z,130
2018-11-06T09:47:17.584Z,130
2018-11-06T09:48:16.230Z,130
2018-11-06T09:49:14.861Z,130
2018-11-06T09:50:13.337Z,130
2018-11-06T09:51:11.906Z,125
2018-11-06T09:52:10.561Z,125
2018-11-06T09:53:09.022Z,125
2018-11-06T09:54:07.520Z,125
2018-11-06T09:55:06.059Z,125
2018-11-06T09:56:04.714Z,125
2018-11-06T09:57:03.230Z,120
2018-11-06T09:58:01.758Z,120
2018-11-06T09:59:00.362Z,120
2018-11-06T09:59:59.016Z,120
2018-11-06T10:00:57.522Z,120
2018-11-06T10:01:56.173Z,120
2018-11-06T10:02:54.723Z,120
2018-11-06T10:03:53.406Z,120
2018-11-06T10:04:51.958Z,115
2018-11-06T10:05:50.728Z,115
2018-11-06T10:06:49.568Z,115
2018-11-06T10:07:48.062Z,110
2018-11-06T10:08:46.625Z,110
2018-11-06T10:09:45.131Z,115
2018-11-06T10:10:43.688Z,120
2018-11-06T10:11:42.357Z,120
2018-11-06T10:12:40.840Z,115
2018-11-06T10:13:39.406Z,120
2018-11-06T10:14:38.012Z,125
2018-11-06T10:15:36.624Z,115
2018-11-06T10:16:35.043Z,115
2018-11-06T10:17:33.592Z,115
2018-11-06T10:18:32.104Z,115
2018-11-06T10:19:30.647Z,115
2018-11-06T10:20:29.193Z,110
2018-11-06T10:21:27.733Z,105
2018-11-06T10:22:26.407Z,105
2018-11-06T10:23:24.989Z,105
2018-11-06T10:24:23.535Z,105
2018-11-06T10:25:22.183Z,100
2018-11-06T10:26:21.007Z,105
2018-11-06T10:27:19.583Z,100
2018-11-06T10:28:18.150Z,100
2018-11-06T10:29:16.669Z,95
2018-11-06T10:30:15.174Z,95
2018-11-06T10:31:13.666Z,100
2018-11-06T10:32:12.485Z,100
2018-11-06T10:33:10.996Z,105
2018-11-06T10:34:09.581Z,105
2018-11-06T10:35:08.179Z,105
2018-11-06T10:36:06.807Z,105
2018-11-06T10:37:05.354Z,110
2018-11-06T10:38:03.884Z,115
2018-11-06T10:41:42.751Z,120
2018-11-06T10:42:41.297Z,125
2018-11-06T10:43:39.836Z,125
2018-11-06T10:44:38.649Z,125
2018-11-06T10:45:37.153Z,130
2018-11-06T10:46:35.676Z,130
2018-11-06T10:47:34.446Z,130
2018-11-06T10:48:33.192Z,130
2018-11-06T10:51:13.428Z,130
2018-11-06T10:52:12.050Z,125
2018-11-06T10:53:10.752Z,125
2018-11-06T10:54:09.297Z,120
2018-11-06T10:55:07.827Z,120
2018-11-06T10:56:06.495Z,120
2018-11-06T10:57:05.041Z,120
2018-11-06T10:58:03.603Z,125
2018-11-06T10:59:02.159Z,130
2018-11-06T11:00:00.854Z,130
2018-11-06T11:00:59.432Z,135
2018-11-06T11:01:57.943Z,130
2018-11-06T11:02:56.515Z,130
2018-11-06T11:03:55.136Z,130
2018-11-06T11:04:53.851Z,130
2018-11-06T11:05:52.737Z,130
2018-11-06T11:06:51.267Z,135
2018-11-06T11:07:50.017Z,135
2018-11-06T11:08:48.540Z,135
2018-11-06T11:09:47.198Z,140
2018-11-06T11:10:45.720Z,140
2018-11-06T11:11:44.244Z,140
2018-11-06T11:12:42.900Z,145
2018-11-06T11:13:41.477Z,145
2018-11-06T11:14:40.122Z,145
2018-11-06T11:15:38.733Z,150
2018-11-06T11:16:37.259Z,145
2018-11-06T11:17:35.801Z,145
2018-11-06T11:18:34.419Z,145
2018-11-06T11:19:32.947Z,145
2018-11-06T11:20:31.519Z,145
2018-11-06T11:21:30.238Z,145
2018-11-06T11:22:28.872Z,150
2018-11-06T11:23:27.421Z,150
2018-11-06T11:24:25.958Z,150
2018-11-06T11:27:24.147Z,150
2018-11-06T11:29:58.192Z,150
2018-11-06T11:30:56.870Z,150
2018-11-06T11:31:55.381Z,150
2018-11-06T11:32:54.877Z,150
2018-11-06T11:33:53.464Z,150
2018-11-06T11:34:51.976Z,150
2018-11-06T11:35:50.539Z,155
2018-11-06T11:36:49.028Z,155
2018-11-06T11:37:47.621Z,155
2018-11-06T11:38:46.069Z,155
2018-11-06T11:39:44.576Z,155
2018-11-06T11:40:43.094Z,155
2018-11-06T11:41:41.723Z,155
2018-11-06T11:42:40.496Z,155
2018-11-06T11:43:39.019Z,155
2018-11-06T11:44:37.514Z,155
2018-11-06T11:45:36.166Z,155
2018-11-06T11:46:34.889Z,155
2018-11-06T11:47:33.383Z,155
2018-11-06T11:48:31.942Z,155
2018-11-06T11:49:30.549Z,155
2018-11-06T11:50:29.180Z,155
2018-11-06T11:51:27.768Z,155
2018-11-06T11:52:26.403Z,155
2018-11-06T11:53:24.948Z,155
2018-11-06T11:54:23.456Z,155
2018-11-06T11:55:21.974Z,155
2018-11-06T11:56:20.479Z,155
2018-11-06T11:59:34.964Z,155
2018-11-06T12:00:33.485Z,155
2018-11-06T12:01:32.095Z,155
2018-11-06T12:02:30.908Z,155
2018-11-06T12:03:29.454Z,155
2018-11-06T12:04:27.963Z,155
2018-11-06T12:05:26.534Z,155
2018-11-06T12:06:25.060Z,155
2018-11-06T12:07:23.650Z,155
2018-11-06T12:08:22.187Z,155
2018-11-06T12:09:20.722Z,150
2018-11-06T12:10:19.320Z,150
2018-11-06T12:11:17.907Z,150
2018-11-06T12:12:16.507Z,150
2018-11-06T12:13:15.017Z,155
2018-11-06T12:14:13.601Z,155
2018-11-06T12:15:12.110Z,150
2018-11-06T12:16:10.743Z,155
2018-11-06T12:17:09.301Z,155
2018-11-06T12:18:07.859Z,150
2018-11-06T12:19:06.486Z,150
2018-11-06T12:20:05.191Z,160
2018-11-06T12:21:03.711Z,155
2018-11-06T12:22:02.339Z,155
2018-11-06T12:23:00.953Z,155
2018-11-06T12:23:59.508Z,155
2018-11-06T12:26:39.588Z,150
2018-11-06T12:27:38.206Z,150
2018-11-06T12:28:36.728Z,150
2018-11-06T12:29:35.278Z,150
2018-11-06T12:30:33.779Z,145
2018-11-06T12:31:32.338Z,145
2018-11-06T12:32:30.943Z,145
2018-11-06T12:33:29.432Z,145
2018-11-06T12:34:27.980Z,145
2018-11-06T12:35:26.641Z,140
2018-11-06T12:36:25.174Z,140
2018-11-06T12:37:23.692Z,140
2018-11-06T12:38:22.669Z,135
2018-11-06T12:39:21.183Z,135
2018-11-06T12:40:19.864Z,135
2018-11-06T12:41:18.420Z,135
2018-11-06T12:42:17.212Z,135
2018-11-06T12:43:15.769Z,130
2018-11-06T12:44:14.665Z,130
2018-11-06T12:45:13.237Z,130
2018-11-06T12:46:11.808Z,125
2018-11-06T12:47:10.424Z,125
2018-11-06T12:48:08.958Z,125
2018-11-06T12:49:07.521Z,125
2018-11-06T12:50:06.169Z,125
2018-11-06T12:51:04.833Z,125
2018-11-06T12:52:03.370Z,120
2018-11-06T12:53:01.915Z,120
2018-11-06T12:54:00.665Z,120
2018-11-06T12:54:59.179Z,120
2018-11-06T12:55:57.750Z,120
2018-11-06T12:56:56.317Z,120
2018-11-06T12:57:54.856Z,120
2018-11-06T12:58:53.375Z,120
2018-11-06T12:59:51.898Z,120
2018-11-06T13:00:50.421Z,120
2018-11-06T13:03:30.836Z,120
2018-11-06T13:04:29.395Z,115
2018-11-06T13:05:28.478Z,115
2018-11-06T13:06:27.014Z,115
2018-11-06T13:07:25.523Z,115
2018-11-06T13:08:24.217Z,115
2018-11-06T13:11:04.511Z,115
2018-11-06T13:12:03.107Z,115
2018-11-06T13:13:01.610Z,115
2018-11-06T13:15:24.169Z,110
2018-11-06T13:16:22.731Z,110
2018-11-06T13:17:21.291Z,110
2018-11-06T13:18:19.863Z,110
2018-11-06T13:19:18.380Z,105
2018-11-06T13:20:16.893Z,105
2018-11-06T13:39:18.063Z,95
2018-11-06T13:40:16.546Z,95
2018-11-06T13:41:15.102Z,90
2018-11-06T13:42:13.648Z,90
2018-11-06T13:43:12.245Z,90
2018-11-06T13:44:10.880Z,90
2018-11-06T13:45:09.416Z,90
2018-11-06T13:46:07.711Z,85
2018-11-06T13:47:06.273Z,85
2018-11-06T13:48:04.805Z,85
2018-11-06T13:49:03.328Z,85
2018-11-06T13:50:01.865Z,85
2018-11-06T13:51:00.670Z,80
2018-11-06T13:51:59.269Z,80
2018-11-06T13:52:57.717Z,80
2018-11-06T13:53:56.450Z,80
2018-11-06T13:54:55.145Z,80
2018-11-06T13:55:53.674Z,80
2018-11-06T13:56:52.378Z,75
2018-11-06T13:57:50.957Z,75
2018-11-06T13:58:49.465Z,75
2018-11-06T13:59:48.459Z,75
2018-11-06T14:00:47.216Z,75
2018-11-06T14:01:45.718Z,75
2018-11-06T14:02:44.527Z,70
2018-11-06T14:03:43.120Z,70
2018-11-06T14:04:41.668Z,70
2018-11-06T14:05:40.718Z,70
2018-11-06T14:06:39.447Z,70
2018-11-06T14:07:38.083Z,70
2018-11-06T14:08:37.523Z,70
2018-11-06T14:09:36.864Z,70
2018-11-06T14:10:35.245Z,70
2018-11-06T14:11:34.057Z,70
2018-11-06T14:12:32.776Z,65
2018-11-06T14:13:31.190Z,65
2018-11-06T14:14:30.206Z,65
2018-11-06T14:15:29.373Z,65
2018-11-06T14:16:28.297Z,65
2018-11-06T14:17:27.149Z,65
2018-11-06T14:18:26.172Z,65
2018-11-06T14:19:25.047Z,65
2018-11-06T14:20:23.513Z,65
2018-11-06T14:21:22.468Z,60
2018-11-06T14:22:22.549Z,55
2018-11-06T14:23:22.211Z,55
2018-11-06T14:24:21.072Z,55
2018-11-06T14:25:19.540Z,55
2018-11-06T14:26:18.298Z,50
2018-11-06T14:27:17.043Z,50
2018-11-06T14:28:15.450Z,50
2018-11-06T14:29:14.097Z,45
2018-11-06T14:30:12.893Z,40
2018-11-06T14:31:11.228Z,40
2018-11-06T14:32:10.063Z,35
2018-11-06T14:33:08.916Z,30
2018-11-06T14:34:08.808Z,30
2018-11-06T14:35:08.306Z,25
2018-11-06T14:36:06.927Z,25
2018-11-06T14:37:05.489Z,25
2018-11-06T14:38:04.517Z,20
2018-11-06T14:39:03.205Z,20
2018-11-06T14:40:01.674Z,20
2018-11-06T14:41:00.411Z,20
2018-11-06T14:41:58.843Z,20
2018-11-06T14:42:57.521Z,15
2018-11-06T14:43:55.912Z,15
2018-11-06T14:44:54.450Z,20
2018-11-06T14:45:53.284Z,20
2018-11-06T14:46:52.342Z,20
2018-11-06T14:47:51.072Z,20
2018-11-06T14:48:50.020Z,15
2018-11-06T14:49:48.571Z,15
2018-11-06T14:50:47.391Z,15
2018-11-06T14:51:45.853Z,15
2018-11-06T14:52:44.632Z,15
2018-11-06T14:53:43.258Z,10
2018-11-06T14:54:41.950Z,10
2018-11-06T14:55:40.828Z,10
2018-11-06T14:56:39.417Z,10
2018-11-06T14:57:37.956Z,10
2018-11-06T14:58:37.746Z,10
2018-11-06T14:59:36.368Z,10
2018-11-06T15:00:35.056Z,10
2018-11-06T15:01:33.703Z,10
2018-11-06T15:02:32.750Z,10
2018-11-06T15:03:31.342Z,10
2018-11-06T15:04:30.263Z,5
2018-11-06T15:05:29.387Z,5
2018-11-06T15:06:28.086Z,5
2018-11-06T15:07:26.706Z,5
2018-11-06T15:08:25.835Z,5
2018-11-06T15:09:25.372Z,5
2018-11-06T15:10:23.981Z,5
2018-11-06T15:11:22.720Z,5
2018-11-06T15:12:21.721Z,5
2018-11-06T15:13:20.823Z,5
2018-11-06T15:14:19.387Z,5
2018-11-06T15:15:18.141Z,5
2018-11-06T15:16:17.450Z,5
2018-11-06T15:17:15.586Z,5
2018-11-06T15:18:14.290Z,5
2018-11-06T15:19:12.964Z,5
2018-11-06T15:20:11.555Z,5
2018-11-06T15:21:10.269Z,5
2018-11-06T15:22:08.899Z,5
2018-11-06T15:23:07.542Z,5
2018-11-06T15:24:06.219Z,5
2018-11-06T15:25:06.339Z,5
2018-11-06T15:26:05.351Z,5
2018-11-06T15:27:03.933Z,5
2018-11-06T15:28:03.724Z,5
2018-11-06T15:29:02.254Z,5
2018-11-06T15:30:00.787Z,5
2018-11-06T15:30:59.930Z,5
2018-11-06T15:31:59.167Z,5
2018-11-06T15:32:57.750Z,5
2018-11-06T15:33:56.876Z,5
2018-11-06T15:34:55.636Z,5
2018-11-06T15:35:54.418Z,0
2018-11-06T15:36:53.045Z,0
2018-11-06T15:37:53.114Z,0
2018-11-06T15:38:51.135Z,5
2018-11-06T15:39:51.118Z,0
2018-11-06T15:40:50.130Z,5
2018-11-06T15:41:48.991Z,0
2018-11-06T15:42:51.993Z,0
2018-11-06T15:43:50.907Z,0
2018-11-06T15:44:49.719Z,0
2018-11-06T15:47:32.057Z,0
2018-11-06T15:48:31.580Z,0
2018-11-06T15:49:30.099Z,0
2018-11-06T15:50:29.140Z,0
2018-11-06T15:51:27.958Z,0
2018-11-06T15:52:28.444Z,0
2018-11-06T15:53:36.532Z,0
2018-11-06T15:54:32.659Z,0
2018-11-06T15:55:31.830Z,0
2018-11-06T15:56:30.654Z,0
2018-11-06T15:57:38.368Z,0
2018-11-06T15:58:33.012Z,0
2018-11-06T15:59:31.541Z,0
2018-11-06T16:00:30.090Z,0
2018-11-06T16:01:29.069Z,0
2018-11-06T16:02:27.710Z,0
2018-11-06T16:03:29.150Z,0
2018-11-06T16:04:27.613Z,0
2018-11-06T16:05:26.297Z,0
2018-11-06T16:06:27.096Z,0
2018-11-06T16:07:25.739Z,0
2018-11-06T16:08:26.002Z,0
2018-11-06T16:09:28.029Z,0
2018-11-06T16:10:59.813Z,0
2018-11-06T16:11:58.582Z,0
2018-11-06T16:12:57.194Z,0
2018-11-06T16:13:56.469Z,0
2018-11-06T16:14:55.107Z,0
2018-11-06T16:15:54.182Z,0
2018-11-06T16:16:53.002Z,0
2018-11-06T16:17:57.980Z,0
2018-11-06T16:18:54.512Z,0
2018-11-06T16:19:53.141Z,0
2018-11-06T16:20:51.683Z,0
2018-11-06T16:21:50.416Z,0
2018-11-06T16:22:49.176Z,0
2018-11-06T16:23:49.063Z,0
2018-11-06T16:24:48.062Z,0
2018-11-06T16:25:46.718Z,0
2018-11-06T16:26:45.208Z,0